This is the latest recevied weather packets stored in our database for station/object ED4YAZ-13. If no packets are shown the sender has not sent any weather packets the latest 10 day(s).
| Time | Temp. | Humidity | Pressure | Rain* | Wind** | Luminosity | Snow |
|---|---|---|---|---|---|---|---|
| 1778041949 | 5.56° C | 74% | 1015.9 hPa | - | - | - | - |
| 1778041941 | 5.56° C | 74% | 1015.9 hPa | - | - | - | - |
| 1778041348 | 5.56° C | 72% | 1015.7 hPa | - | - | - | - |
| 1778041341 | 5.56° C | 72% | 1015.7 hPa | - | - | - | - |
| 1778040745 | 6.11° C | 72% | 1015.7 hPa | - | - | - | - |
| 1778040737 | 6.11° C | 72% | 1015.7 hPa | - | - | - | - |
| 1778040130 | 6.11° C | 72% | 1015.8 hPa | - | - | - | - |
| 1778039920 | 6.11° C | 71% | 1015.7 hPa | - | - | - | - |
| 1778039530 | 6.11° C | 71% | 1015.7 hPa | - | - | - | - |
| 1778038930 | 6.11° C | 70% | 1015.7 hPa | - | - | - | - |
| 1778038330 | 6.11° C | 69% | 1015.7 hPa | - | - | - | - |
| 1778037730 | 6.67° C | 69% | 1015.6 hPa | - | - | - | - |
| 1778037130 | 6.11° C | 68% | 1015.7 hPa | - | - | - | - |
| 1778036530 | 6.67° C | 67% | 1015.5 hPa | - | - | - | - |
| 1778035930 | 6.67° C | 65% | 1015.4 hPa | - | - | - | - |
| 1778035462 | 6.67° C | 64% | 1015.5 hPa | - | - | - | - |
| 1778035330 | 6.67° C | 64% | 1015.5 hPa | - | - | - | - |
| 1778034730 | 7.22° C | 63% | 1015.3 hPa | - | - | - | - |
| 1778034130 | 7.22° C | 61% | 1015.2 hPa | - | - | - | - |
| 1778033720 | 7.22° C | 60% | 1015.2 hPa | - | - | - | - |
| 1778033530 | 7.22° C | 60% | 1015.2 hPa | - | - | - | - |
| 1778032915 | 7.22° C | 59% | 1015.1 hPa | - | - | - | - |
| 1778032315 | 7.78° C | 56% | 1014.9 hPa | - | - | - | - |
| 1778031217 | 8.33° C | 54% | 1014.5 hPa | - | - | - | - |
| 1778030611 | 8.89° C | 54% | 1014.6 hPa | - | - | - | - |
* Rain since midnight (hover to see other rain measurements)
** Current wind speed in m/s (hover to see current wind gust speed)